createdAt,value
2022-11-04T00:02:52.230Z,100
2022-11-04T00:08:42.994Z,100
2022-11-04T09:16:34.029Z,100
2022-11-04T09:22:21.418Z,100
2022-11-04T10:26:10.295Z,96.6
2022-11-04T10:33:10.846Z,96
2022-11-04T11:04:52.518Z,93.2
2022-11-04T11:10:45.783Z,92.9
2022-11-04T11:17:01.209Z,92.6
2022-11-04T11:24:05.796Z,91.1
2022-11-04T11:29:55.806Z,91.1
2022-11-04T11:35:48.029Z,90.2
2022-11-04T11:41:47.982Z,89.4
2022-11-04T11:47:40.720Z,89.7
2022-11-04T11:53:31.202Z,89.3
2022-11-04T12:06:32.583Z,90.1
2022-11-04T12:14:54.546Z,89.9
2022-11-04T12:20:44.303Z,89.4
2022-11-04T12:26:34.377Z,89.2
2022-11-04T12:32:24.268Z,88.9
2022-11-04T12:38:14.357Z,89.3
2022-11-04T12:44:03.900Z,88.7
2022-11-04T12:49:53.915Z,93.1
2022-11-04T12:55:45.595Z,97.6
2022-11-04T13:01:36.927Z,98.2
2022-11-04T13:07:43.458Z,100
2022-11-04T13:13:35.174Z,100
2022-11-04T13:19:24.329Z,100
2022-11-04T13:25:12.429Z,100
2022-11-04T13:31:02.394Z,100
2022-11-04T13:36:52.907Z,100
2022-11-04T13:42:42.763Z,100
2022-11-04T13:48:33.575Z,100
2022-11-04T13:54:24.934Z,100
2022-11-04T14:00:15.715Z,100
2022-11-04T14:06:05.583Z,98.4
2022-11-04T14:11:56.252Z,100
2022-11-04T14:17:45.932Z,100
2022-11-04T14:23:35.826Z,100
2022-11-04T14:29:25.967Z,100
2022-11-04T14:35:16.582Z,100
2022-11-04T14:41:06.041Z,100
2022-11-04T14:47:00.157Z,100
2022-11-04T14:55:13.791Z,100
2022-11-04T15:01:00.984Z,100
2022-11-04T15:06:59.487Z,100
2022-11-04T15:12:50.798Z,100
2022-11-04T15:18:41.855Z,100
2022-11-04T15:24:31.641Z,100
2022-11-04T15:30:22.155Z,100
2022-11-04T15:36:13.197Z,100
2022-11-04T15:42:03.456Z,100
2022-11-04T15:47:54.937Z,100
2022-11-04T15:53:45.269Z,100
2022-11-04T15:59:35.473Z,100
2022-11-04T16:05:25.797Z,100
2022-11-04T16:11:16.906Z,100
2022-11-04T16:17:07.943Z,100
2022-11-04T16:22:59.653Z,100
2022-11-04T16:28:50.847Z,100
2022-11-04T16:34:40.923Z,100
2022-11-04T16:40:30.969Z,100
2022-11-04T16:46:20.691Z,100
2022-11-04T16:52:10.716Z,100
2022-11-04T16:58:01.400Z,100
2022-11-04T17:03:50.172Z,100
2022-11-04T17:09:40.175Z,100
2022-11-04T17:15:28.687Z,100
2022-11-04T17:21:16.741Z,100
2022-11-04T17:27:04.750Z,100
2022-11-04T17:32:53.592Z,100
2022-11-04T17:38:42.329Z,100
2022-11-04T17:44:30.897Z,100
2022-11-04T17:50:21.170Z,100
2022-11-04T17:56:11.259Z,100
2022-11-04T18:02:03.011Z,100
2022-11-04T18:07:52.691Z,100
2022-11-04T18:13:42.416Z,100
2022-11-04T18:19:32.253Z,100
2022-11-04T18:25:22.537Z,100
2022-11-04T18:31:12.783Z,100
2022-11-04T18:37:05.574Z,100
2022-11-04T18:42:53.911Z,100
2022-11-04T18:48:44.619Z,100
2022-11-04T18:54:35.126Z,100
2022-11-04T19:00:25.025Z,100
2022-11-04T19:06:15.897Z,100
2022-11-04T19:12:07.568Z,100
2022-11-04T19:17:58.113Z,100
2022-11-04T19:23:48.535Z,100
2022-11-04T19:29:38.542Z,100
2022-11-04T19:35:29.110Z,100
2022-11-04T19:41:19.288Z,100
2022-11-04T19:47:11.298Z,100
2022-11-04T19:53:03.512Z,100
2022-11-04T19:58:54.483Z,100
2022-11-04T20:04:52.121Z,100
2022-11-04T20:10:41.736Z,100
2022-11-04T20:16:31.476Z,100
2022-11-04T20:22:21.451Z,100
2022-11-04T20:28:13.589Z,100
2022-11-04T20:34:05.159Z,100
2022-11-04T20:39:55.327Z,100
2022-11-04T20:45:52.414Z,100
2022-11-04T20:51:42.292Z,100
2022-11-04T20:57:41.764Z,100
2022-11-04T21:03:31.993Z,100
2022-11-04T21:09:22.141Z,100
2022-11-04T21:15:12.792Z,100
2022-11-04T21:21:03.322Z,100
2022-11-04T21:26:53.425Z,100
2022-11-04T21:32:42.830Z,100
2022-11-04T21:38:33.269Z,100
2022-11-04T21:44:23.966Z,100
2022-11-04T21:50:21.069Z,100
2022-11-04T21:56:10.874Z,100
2022-11-04T22:02:03.741Z,100
2022-11-04T22:07:55.295Z,100
2022-11-04T22:13:45.892Z,100
2022-11-04T22:19:34.816Z,100
2022-11-04T22:25:24.568Z,100
2022-11-04T22:31:14.705Z,100
2022-11-04T22:37:04.234Z,100
2022-11-04T22:42:53.935Z,100
2022-11-04T22:48:43.909Z,100
2022-11-04T22:54:35.397Z,100
2022-11-04T23:00:31.341Z,100
2022-11-04T23:06:37.065Z,100
2022-11-04T23:18:30.708Z,100
2022-11-04T23:24:26.575Z,100
2022-11-04T23:30:22.298Z,100
2022-11-04T23:36:14.055Z,100
2022-11-04T23:42:07.404Z,100
2022-11-04T23:47:58.867Z,100
2022-11-04T23:53:50.944Z,100
2022-11-04T23:59:42.099Z,100
